This is the latest recevied weather packets stored in our database for station/object W7BL. If no packets are shown the sender has not sent any weather packets the latest 10 day(s).
| Time | Temp. | Humidity | Pressure | Rain* | Wind** | Luminosity | Snow |
|---|---|---|---|---|---|---|---|
| 1777872873 | 14.44° C | 57% | - | 0 mm | - | - | - |
| 1777872571 | 14.44° C | 58% | - | 0 mm | - | - | - |
| 1777872268 | 13.89° C | 59% | - | 0 mm | - | - | - |
| 1777871966 | 13.89° C | 58% | - | 0 mm | - | - | - |
| 1777871662 | 14.44° C | 57% | - | 0 mm | - | - | - |
| 1777871358 | 14.44° C | 56% | - | 0 mm | - | - | - |
| 1777871055 | 15° C | 56% | - | 0 mm | - | - | - |
| 1777870752 | 15.56° C | 54% | - | 0 mm | - | - | - |
| 1777870448 | 15.56° C | 53% | - | 0 mm | - | - | - |
| 1777870145 | 16.11° C | 52% | - | 0 mm | - | - | - |
| 1777869842 | 16.67° C | 49% | - | 0 mm | - | - | - |
| 1777869539 | 16.67° C | 49% | - | 0 mm | - | - | - |
| 1777869236 | 16.67° C | 49% | - | 0 mm | - | - | - |
| 1777868934 | 16.67° C | 49% | - | 0 mm | - | - | - |
| 1777868630 | 16.67° C | 51% | - | 0 mm | - | - | - |
| 1777868326 | 16.67° C | 48% | - | 0 mm | - | - | - |
| 1777868023 | 17.22° C | 48% | - | 0 mm | - | - | - |
| 1777867718 | 17.22° C | 46% | - | 0 mm | - | - | - |
| 1777867416 | 17.78° C | 46% | - | 0 mm | - | - | - |
| 1777867112 | 17.78° C | 47% | - | 0 mm | - | - | - |
| 1777866810 | 17.78° C | 47% | - | 0 mm | - | - | - |
| 1777866507 | 17.78° C | 48% | - | 0 mm | - | - | - |
| 1777866204 | 19.44° C | 45% | - | 0 mm | - | - | - |
| 1777865901 | 20° C | 43% | - | 0 mm | - | - | - |
| 1777865599 | 20° C | 42% | - | 0 mm | - | - | - |
* Rain latest hour (hover to see other rain measurements)
** Current wind speed in m/s (hover to see current wind gust speed)